Webcam

2019/01/17 11:20 EBBR 171120Z 29014KT 9999 -SHRA FEW012CB SCT014TCU BKN022 05/03 Q1004 TEMPO 25015G25KT 4000 SHRAGS BKN012CB

Webcam

--- Refresh now ---